Time;durP1;ratioP1;P1;durP2;ratioP2;P2;SDS_P1;SDS_P2;PMS_P1;PMS_P2;Temp;Humidity;BMP_temperature;BMP_pressure;BME280_temperature;BME280_humidity;BME280_pressure;Samples;Min_cycle;Max_cycle;Signal;HPM_P1;HPM_P2
2022/03/20 00:00:00;;;;;;;;;;;;;;;1.68;100.00;96803.63;1032144;28;19941;-77
2022/03/20 00:00:30;;;;;;;;;;;;;;;1.64;100.00;96798.00;1036896;28;19916;-76
2022/03/20 00:01:02;;;;;;;;;;;;;;;1.67;100.00;96794.28;1033694;28;19945;-76
2022/03/20 00:01:32;;;;;;;;;;;;;;;1.64;100.00;96798.00;1024963;28;19915;-75
2022/03/20 00:02:03;;;;;;;;;;;;;;;1.61;100.00;96799.19;1034328;28;19914;-79
2022/03/20 00:02:37;;;;;;;;;;;;;;;1.63;100.00;96802.38;1033120;28;19937;-77
2022/03/20 00:03:09;;;;;;;;;;;;;;;1.63;100.00;96797.22;1029587;28;19944;-76
2022/03/20 00:03:40;;;;;;;;;;;;;;;1.63;100.00;96797.22;1035376;28;19922;-80
2022/03/20 00:04:10;;;;;;;;;;;;;;;1.63;100.00;96804.97;1028845;28;19914;-78
2022/03/20 00:04:40;;;;;;;;;;;;;;;1.68;100.00;96801.03;1029086;28;19917;-75
2022/03/20 00:05:11;;;;;;;;;;;;;;;1.68;100.00;96793.28;1029185;28;19961;-81
2022/03/20 00:05:41;;;;;;;;;;;;;;;1.68;100.00;96799.28;1033217;28;19921;-75
2022/03/20 00:06:15;;;;;;;;;;;;;;;1.68;100.00;96801.03;1032808;28;19910;-77
2022/03/20 00:06:45;;;;;;;;;;;;;;;1.67;100.00;96802.03;1033123;28;19973;-77
2022/03/20 00:07:16;;;;;;;;;;;;;;;1.67;100.00;96799.44;1037180;28;20393;-77
2022/03/20 00:07:46;;;;;;;;;;;;;;;1.63;100.00;96797.22;1032491;28;19913;-77
2022/03/20 00:08:16;;;;;;;;;;;;;;;1.64;100.00;96793.66;1032866;28;19913;-76
2022/03/20 00:08:47;;;;;;;;;;;;;;;1.63;100.00;96799.81;1025014;28;20353;-76
2022/03/20 00:09:17;;;;;;;;;;;;;;;1.64;100.00;96798.84;1029328;28;19910;-76
2022/03/20 00:09:51;;;;;;;;;;;;;;;1.64;100.00;96801.44;1028917;28;19917;-77
2022/03/20 00:10:21;;;;;;;;;;;;;;;1.63;100.00;96799.81;1027632;28;19911;-77
2022/03/20 00:10:52;;;;;;;;;;;;;;;1.63;100.00;96802.38;1024706;29;19922;-77
2022/03/20 00:11:23;;;;;;;;;;;;;;;1.59;100.00;96801.16;1022095;28;20391;-79
2022/03/20 00:11:53;;;;;;;;;;;;;;;1.55;100.00;96799.91;1024048;29;19926;-77
2022/03/20 00:12:23;;;;;;;;;;;;;;;1.55;100.00;96799.13;1025097;28;19926;-78
2022/03/20 00:12:54;;;;;;;;;;;;;;;1.52;100.00;96797.69;1031444;28;20049;-79
2022/03/20 00:13:24;;;;;;;;;;;;;;;1.52;100.00;96794.28;1032994;28;19914;-78
2022/03/20 00:13:54;;;;;;;;;;;;;;;1.52;100.00;96797.69;1032303;28;19926;-78
2022/03/20 00:14:25;;;;;;;;;;;;;;;1.52;100.00;96800.25;1030220;28;20933;-76
2022/03/20 00:14:55;;;;;;;;;;;;;;;1.52;100.00;96792.50;1022088;28;20353;-78
2022/03/20 00:15:30;;;;;;;;;;;;;;;1.50;100.00;96802.22;1025330;29;21163;-77
2022/03/20 00:16:03;;;;;;;;;;;;;;;1.50;100.00;96791.06;1020836;29;19919;-77
2022/03/20 00:16:33;;;;;;;;;;;;;;;1.48;100.00;96796.44;1024737;29;19910;-76
2022/03/20 00:17:04;;;;;;;;;;;;;;;1.50;100.00;96797.03;1020105;29;20077;-77
2022/03/20 00:17:38;;;;;;;;;;;;;;;1.48;100.00;96798.22;1028076;28;19914;-76
2022/03/20 00:18:09;;;;;;;;;;;;;;;1.49;100.00;96792.06;1024925;28;20325;-80
2022/03/20 00:18:39;;;;;;;;;;;;;;;1.49;100.00;96790.28;1029211;28;20251;-78
2022/03/20 00:19:09;;;;;;;;;;;;;;;1.49;100.00;96799.81;1028596;28;19921;-78
2022/03/20 00:19:40;;;;;;;;;;;;;;;1.47;100.00;96789.63;1025163;28;19925;-78
2022/03/20 00:20:11;;;;;;;;;;;;;;;1.48;100.00;96788.69;1030976;28;20020;-80
2022/03/20 00:20:43;;;;;;;;;;;;;;;1.48;100.00;96796.44;1032774;28;20387;-75
2022/03/20 00:21:13;;;;;;;;;;;;;;;1.48;100.00;96791.25;1028316;28;19914;-76
2022/03/20 00:21:43;;;;;;;;;;;;;;;1.48;100.00;96793.06;1028722;28;19925;-79
2022/03/20 00:22:14;;;;;;;;;;;;;;;1.46;100.00;96795.00;1028389;28;19914;-78
2022/03/20 00:22:45;;;;;;;;;;;;;;;1.46;100.00;96788.03;1041305;28;19909;-77
2022/03/20 00:23:18;;;;;;;;;;;;;;;1.45;100.00;96793.41;1036518;28;19913;-76
2022/03/20 00:23:48;;;;;;;;;;;;;;;1.45;100.00;96788.25;1024602;29;19977;-77
2022/03/20 00:24:20;;;;;;;;;;;;;;;1.45;100.00;96788.25;1029103;28;20538;-77
2022/03/20 00:24:51;;;;;;;;;;;;;;;1.49;100.00;96790.28;1032346;28;19917;-76
2022/03/20 00:25:21;;;;;;;;;;;;;;;1.47;100.00;96794.81;1032431;28;19925;-77
2022/03/20 00:25:52;;;;;;;;;;;;;;;1.47;100.00;96792.22;1028751;28;19914;-78
2022/03/20 00:26:22;;;;;;;;;;;;;;;1.46;100.00;96790.63;1031755;28;19906;-77
2022/03/20 00:26:56;;;;;;;;;;;;;;;1.44;100.00;96784.81;1028818;28;19970;-78
2022/03/20 00:27:29;;;;;;;;;;;;;;;1.41;100.00;96788.59;1031688;28;19910;-76
2022/03/20 00:28:09;;;;;;;;;;;;;;;1.39;100.00;96785.38;1030117;28;19917;-78
2022/03/20 00:28:40;;;;;;;;;;;;;;;1.43;100.00;96785.81;1036476;28;19925;-77
2022/03/20 00:29:11;;;;;;;;;;;;;;;1.40;100.00;96786.97;1028158;28;20309;-79
2022/03/20 00:29:42;;;;;;;;;;;;;;;1.41;100.00;96786.00;1036659;28;19906;-77
2022/03/20 00:30:12;;;;;;;;;;;;;;;1.42;100.00;96784.22;1028492;28;19929;-77
2022/03/20 00:30:42;;;;;;;;;;;;;;;1.42;100.00;96786.81;1027828;28;20324;-77
2022/03/20 00:31:16;;;;;;;;;;;;;;;1.39;100.00;96774.22;1024232;28;19949;-77
2022/03/20 00:31:46;;;;;;;;;;;;;;;1.42;100.00;96781.63;1034808;28;19961;-81
2022/03/20 00:32:19;;;;;;;;;;;;;;;1.41;100.00;96782.63;1034222;28;19952;-78
2022/03/20 00:32:49;;;;;;;;;;;;;;;1.39;100.00;96784.56;1021544;29;19919;-78
2022/03/20 00:33:20;;;;;;;;;;;;;;;1.38;100.00;96778.59;1023870;28;19909;-77
2022/03/20 00:33:51;;;;;;;;;;;;;;;1.36;100.00;96784.94;1031674;28;19917;-79
2022/03/20 00:34:21;;;;;;;;;;;;;;;1.37;100.00;96784.72;1025210;28;20329;-77
2022/03/20 00:34:56;;;;;;;;;;;;;;;1.36;100.00;96788.31;1028016;28;19990;-77
2022/03/20 00:35:27;;;;;;;;;;;;;;;1.35;100.00;96783.34;1028024;28;19910;-77
2022/03/20 00:35:58;;;;;;;;;;;;;;;1.33;100.00;96786.06;1021459;28;19919;-78
2022/03/20 00:36:28;;;;;;;;;;;;;;;1.32;100.00;96792.25;1030477;28;19909;-77
2022/03/20 00:37:01;;;;;;;;;;;;;;;1.32;100.00;96787.06;1027587;28;20411;-78
2022/03/20 00:37:32;;;;;;;;;;;;;;;1.30;100.00;96785.63;1024026;28;19918;-79
2022/03/20 00:38:03;;;;;;;;;;;;;;;1.30;100.00;96790.81;1025728;28;19930;-77
2022/03/20 00:38:33;;;;;;;;;;;;;;;1.27;100.00;96783.41;1024398;28;20103;-78
2022/03/20 00:39:03;;;;;;;;;;;;;;;1.29;100.00;96795.19;1027251;28;19914;-77
2022/03/20 00:39:34;;;;;;;;;;;;;;;1.29;100.00;96794.38;1027697;28;19915;-77
2022/03/20 00:40:04;;;;;;;;;;;;;;;1.27;100.00;96797.13;1028305;28;19911;-77
2022/03/20 00:40:35;;;;;;;;;;;;;;;1.26;100.00;96790.34;1033664;28;19906;-79
2022/03/20 00:41:05;;;;;;;;;;;;;;;1.28;100.00;96788.41;1031846;28;20379;-81
2022/03/20 00:41:36;;;;;;;;;;;;;;;1.25;100.00;96790.56;1032283;28;19918;-78
2022/03/20 00:42:06;;;;;;;;;;;;;;;1.24;100.00;96786.34;1028705;28;19911;-79
2022/03/20 00:42:36;;;;;;;;;;;;;;;1.22;100.00;96789.13;1033242;28;19922;-80
2022/03/20 00:43:07;;;;;;;;;;;;;;;1.22;100.00;96791.69;1033007;28;20312;-78
2022/03/20 00:43:38;;;;;;;;;;;;;;;1.20;100.00;96791.06;1032650;28;19979;-79
2022/03/20 00:44:08;;;;;;;;;;;;;;;1.24;100.00;96781.16;1032903;28;19918;-77
2022/03/20 00:44:39;;;;;;;;;;;;;;;1.22;100.00;96790.91;1028244;28;19910;-80
2022/03/20 00:45:09;;;;;;;;;;;;;;;1.25;100.00;96793.13;1028140;28;19914;-78
2022/03/20 00:45:40;;;;;;;;;;;;;;;1.26;100.00;96789.56;1028290;28;20426;-79
2022/03/20 00:46:10;;;;;;;;;;;;;;;1.26;100.00;96794.72;1032667;28;19964;-80
2022/03/20 00:46:41;;;;;;;;;;;;;;;1.26;100.00;96787.78;1032268;28;19997;-79
2022/03/20 00:47:13;;;;;;;;;;;;;;;1.31;100.00;96792.44;1028318;28;19914;-78
2022/03/20 00:47:43;;;;;;;;;;;;;;;1.31;100.00;96789.84;1024198;29;20404;-78
2022/03/20 00:48:14;;;;;;;;;;;;;;;1.28;100.00;96790.19;1028410;28;19983;-78
2022/03/20 00:48:44;;;;;;;;;;;;;;;1.27;100.00;96786.78;1032775;28;19914;-79
2022/03/20 00:49:15;;;;;;;;;;;;;;;1.28;100.00;96793.59;1040299;28;19936;-80
2022/03/20 00:49:45;;;;;;;;;;;;;;;1.28;100.00;96792.78;1040018;28;20453;-79
2022/03/20 00:50:16;;;;;;;;;;;;;;;1.25;100.00;96790.56;1036298;28;19910;-80
2022/03/20 00:50:46;;;;;;;;;;;;;;;1.24;100.00;96791.50;1035823;28;19957;-79
2022/03/20 00:51:16;;;;;;;;;;;;;;;1.23;100.00;96792.50;1035832;28;19917;-77
2022/03/20 00:51:47;;;;;;;;;;;;;;;1.24;100.00;96786.34;1031640;28;19913;-80
2022/03/20 00:52:20;;;;;;;;;;;;;;;1.22;100.00;96793.50;1031757;28;19906;-77
2022/03/20 00:52:50;;;;;;;;;;;;;;;1.21;100.00;96791.88;1015754;29;19915;-79
2022/03/20 00:53:21;;;;;;;;;;;;;;;1.18;100.00;96793.03;1034308;28;19910;-80
2022/03/20 00:53:51;;;;;;;;;;;;;;;1.13;100.00;96790.97;1035799;28;20551;-78
2022/03/20 00:54:22;;;;;;;;;;;;;;;1.11;100.00;96792.16;1027836;28;19919;-75
2022/03/20 00:54:52;;;;;;;;;;;;;;;1.10;100.00;96791.31;1028089;28;19914;-77
2022/03/20 00:55:23;;;;;;;;;;;;;;;1.10;100.00;96796.50;1032580;28;20261;-76
2022/03/20 00:55:53;;;;;;;;;;;;;;;1.10;100.00;96796.50;1032007;28;19910;-78
2022/03/20 00:56:23;;;;;;;;;;;;;;;1.07;100.00;96794.25;1024024;28;19921;-78
2022/03/20 00:56:54;;;;;;;;;;;;;;;1.04;100.00;96799.81;1028514;28;19917;-77
2022/03/20 00:57:24;;;;;;;;;;;;;;;1.05;100.00;96798.81;1036477;28;19909;-79
2022/03/20 00:57:55;;;;;;;;;;;;;;;1.07;100.00;96791.66;1028257;28;19925;-78
2022/03/20 00:58:25;;;;;;;;;;;;;;;1.10;100.00;96796.50;1015012;29;19914;-78
2022/03/20 00:58:56;;;;;;;;;;;;;;;1.10;100.00;96795.69;1028626;28;19914;-77
2022/03/20 00:59:27;;;;;;;;;;;;;;;1.11;100.00;96803.28;1024854;28;19923;-75
2022/03/20 00:59:57;;;;;;;;;;;;;;;1.08;100.00;96798.47;1026692;28;19953;-77
2022/03/20 01:00:27;;;;;;;;;;;;;;;1.08;100.00;96801.03;1026347;28;20442;-81
2022/03/20 01:00:59;;;;;;;;;;;;;;;1.07;100.00;96802.00;1028671;28;19914;-80
2022/03/20 01:01:29;;;;;;;;;;;;;;;1.06;100.00;96804.78;1029449;28;19949;-78
2022/03/20 01:01:59;;;;;;;;;;;;;;;1.08;100.00;96805.41;1028264;28;19949;-78
2022/03/20 01:02:35;;;;;;;;;;;;;;;1.05;100.00;96809.16;1033330;28;19920;-77
2022/03/20 01:03:06;;;;;;;;;;;;;;;1.02;100.00;96809.50;1033037;28;19981;-76
2022/03/20 01:03:38;;;;;;;;;;;;;;;1.05;100.00;96805.78;1031064;28;19914;-76
2022/03/20 01:04:08;;;;;;;;;;;;;;;1.07;100.00;96801.22;1031801;28;20016;-74
2022/03/20 01:04:39;;;;;;;;;;;;;;;1.07;100.00;96804.59;1032875;28;19918;-77
2022/03/20 01:05:10;;;;;;;;;;;;;;;1.05;100.00;96798.81;1035219;28;19914;-78
2022/03/20 01:05:40;;;;;;;;;;;;;;;1.08;100.00;96803.63;1033253;28;19906;-77
2022/03/20 01:06:11;;;;;;;;;;;;;;;1.07;100.00;96807.19;1029417;28;19926;-79
2022/03/20 01:06:41;;;;;;;;;;;;;;;1.06;100.00;96815.91;1021294;29;19911;-78
2022/03/20 01:07:12;;;;;;;;;;;;;;;1.05;100.00;96808.34;1021075;29;19921;-77
2022/03/20 01:07:46;;;;;;;;;;;;;;;1.02;100.00;96809.50;1028852;28;20004;-76
2022/03/20 01:08:17;;;;;;;;;;;;;;;1.03;100.00;96810.28;1033702;28;19917;-75
2022/03/20 01:08:49;;;;;;;;;;;;;;;1.03;100.00;96805.94;1032794;28;19914;-78
2022/03/20 01:09:19;;;;;;;;;;;;;;;1.00;100.00;96806.28;1036860;28;19932;-77
2022/03/20 01:09:50;;;;;;;;;;;;;;;0.97;100.00;96805.81;1033720;28;19914;-77
2022/03/20 01:10:20;;;;;;;;;;;;;;;1.00;100.00;96811.44;1031770;28;19914;-76
2022/03/20 01:10:51;;;;;;;;;;;;;;;0.98;100.00;96805.66;1029726;28;20387;-77
2022/03/20 01:11:21;;;;;;;;;;;;;;;1.00;100.00;96808.84;1029836;28;20238;-78
2022/03/20 01:11:52;;;;;;;;;;;;;;;0.98;100.00;96812.63;1029738;28;20292;-77
2022/03/20 01:12:23;;;;;;;;;;;;;;;0.96;100.00;96807.59;1029882;28;19953;-77
2022/03/20 01:12:54;;;;;;;;;;;;;;;0.99;100.00;96809.84;1029229;28;20001;-77
2022/03/20 01:13:24;;;;;;;;;;;;;;;0.95;100.00;96816.34;1021320;29;20333;-76
2022/03/20 01:13:55;;;;;;;;;;;;;;;0.93;100.00;96807.97;1032573;28;19983;-75
2022/03/20 01:14:26;;;;;;;;;;;;;;;0.88;100.00;96816.25;1032985;28;19972;-75
2022/03/20 01:14:56;;;;;;;;;;;;;;;0.87;100.00;96816.41;1029934;28;19913;-78
2022/03/20 01:15:27;;;;;;;;;;;;;;;0.86;100.00;96809.63;1033343;28;19910;-76
2022/03/20 01:15:57;;;;;;;;;;;;;;;0.85;100.00;96808.03;1032999;28;19910;-77
2022/03/20 01:16:27;;;;;;;;;;;;;;;0.85;100.00;96808.03;1036982;28;19981;-75
2022/03/20 01:16:58;;;;;;;;;;;;;;;0.87;100.00;96811.22;1036858;28;19914;-76
2022/03/20 01:17:28;;;;;;;;;;;;;;;0.86;100.00;96814.81;1028853;28;19969;-77
2022/03/20 01:17:58;;;;;;;;;;;;;;;0.88;100.00;96813.66;1025505;28;20362;-76
2022/03/20 01:18:29;;;;;;;;;;;;;;;0.86;100.00;96817.38;1032993;28;19910;-75
2022/03/20 01:18:59;;;;;;;;;;;;;;;0.90;100.00;96816.06;1029303;28;19910;-78
2022/03/20 01:19:32;;;;;;;;;;;;;;;0.89;100.00;96814.47;1033554;28;19910;-77
2022/03/20 01:20:02;;;;;;;;;;;;;;;0.90;100.00;96813.47;1029176;28;19920;-76
2022/03/20 01:20:36;;;;;;;;;;;;;;;0.90;100.00;96811.69;1021213;29;19937;-77
2022/03/20 01:21:07;;;;;;;;;;;;;;;0.90;100.00;96813.47;1021898;29;19915;-77
2022/03/20 01:21:38;;;;;;;;;;;;;;;0.91;100.00;96818.47;1029253;28;19949;-78
2022/03/20 01:22:09;;;;;;;;;;;;;;;0.88;100.00;96818.03;1033547;28;19913;-79
2022/03/20 01:22:40;;;;;;;;;;;;;;;0.91;100.00;96818.47;1034533;28;19937;-77
2022/03/20 01:23:10;;;;;;;;;;;;;;;0.91;100.00;96812.50;1028491;28;19945;-77
2022/03/20 01:23:41;;;;;;;;;;;;;;;0.89;100.00;96814.47;1024945;29;19993;-75
2022/03/20 01:24:11;;;;;;;;;;;;;;;0.88;100.00;96813.66;1025511;28;19923;-78
2022/03/20 01:24:42;;;;;;;;;;;;;;;0.87;100.00;96819.00;1033454;28;19917;-78
2022/03/20 01:25:13;;;;;;;;;;;;;;;0.84;100.00;96821.91;1032795;28;19925;-77
2022/03/20 01:25:43;;;;;;;;;;;;;;;0.80;100.00;96823.25;1028875;28;19986;-77
2022/03/20 01:26:16;;;;;;;;;;;;;;;0.80;100.00;96820.66;1024653;29;19921;-76
2022/03/20 01:26:47;;;;;;;;;;;;;;;0.78;100.00;96814.88;1036939;28;19917;-75
2022/03/20 01:27:17;;;;;;;;;;;;;;;0.79;100.00;96813.91;1032687;28;19906;-77
2022/03/20 01:27:47;;;;;;;;;;;;;;;0.73;100.00;96814.59;1035118;28;19941;-76
2022/03/20 01:28:18;;;;;;;;;;;;;;;0.74;100.00;96826.53;1029004;28;20000;-77
2022/03/20 01:28:48;;;;;;;;;;;;;;;0.74;100.00;96818.78;1033351;28;19922;-78
2022/03/20 01:29:19;;;;;;;;;;;;;;;0.72;100.00;96823.31;1029521;28;19920;-78
2022/03/20 01:29:49;;;;;;;;;;;;;;;0.74;100.00;96827.34;1029021;28;19914;-75
2022/03/20 01:30:21;;;;;;;;;;;;;;;0.74;100.00;96817.00;1029744;28;19914;-77
2022/03/20 01:30:52;;;;;;;;;;;;;;;0.76;100.00;96819.41;1025538;28;19918;-78
2022/03/20 01:31:22;;;;;;;;;;;;;;;0.73;100.00;96820.56;1033052;28;19910;-79
2022/03/20 01:31:52;;;;;;;;;;;;;;;0.72;100.00;96818.16;1029604;28;19911;-77
2022/03/20 01:32:23;;;;;;;;;;;;;;;0.70;100.00;96819.16;1025839;29;20027;-79
2022/03/20 01:32:54;;;;;;;;;;;;;;;0.68;100.00;96808.16;1024991;28;19922;-77
2022/03/20 01:33:24;;;;;;;;;;;;;;;0.69;100.00;96819.31;1029052;28;19918;-77
2022/03/20 01:33:55;;;;;;;;;;;;;;;0.68;100.00;96822.88;1032839;28;19972;-77
2022/03/20 01:34:26;;;;;;;;;;;;;;;0.64;100.00;96819.03;1033395;28;19918;-76
2022/03/20 01:34:57;;;;;;;;;;;;;;;0.62;100.00;96819.19;1033257;28;19917;-78
2022/03/20 01:35:27;;;;;;;;;;;;;;;0.61;100.00;96817.59;1033682;28;19909;-77
2022/03/20 01:36:00;;;;;;;;;;;;;;;0.63;100.00;96815.63;1030463;28;19949;-80
2022/03/20 01:36:30;;;;;;;;;;;;;;;0.62;100.00;96815.81;1025315;29;19914;-77
2022/03/20 01:37:01;;;;;;;;;;;;;;;0.62;100.00;96818.38;1025672;29;19907;-79
2022/03/20 01:37:31;;;;;;;;;;;;;;;0.58;100.00;96817.13;1028805;28;19910;-77
2022/03/20 01:38:02;;;;;;;;;;;;;;;0.62;100.00;96818.38;1029230;28;20485;-78
2022/03/20 01:38:32;;;;;;;;;;;;;;;0.58;100.00;96810.19;1033344;28;19910;-77
2022/03/20 01:39:03;;;;;;;;;;;;;;;0.60;100.00;96810.81;1029909;28;19973;-79
2022/03/20 01:39:33;;;;;;;;;;;;;;;0.62;100.00;96818.38;1033273;28;19910;-80
2022/03/20 01:40:03;;;;;;;;;;;;;;;0.60;100.00;96815.16;1033017;28;19949;-76
2022/03/20 01:40:34;;;;;;;;;;;;;;;0.60;100.00;96812.59;1037411;28;20004;-77
2022/03/20 01:41:05;;;;;;;;;;;;;;;0.58;100.00;96815.34;1029588;28;19912;-78
2022/03/20 01:41:35;;;;;;;;;;;;;;;0.59;100.00;96819.53;1025825;29;19921;-77
2022/03/20 01:42:05;;;;;;;;;;;;;;;0.57;100.00;96811.19;1029624;28;19990;-75
2022/03/20 01:42:38;;;;;;;;;;;;;;;0.61;100.00;96817.59;1033524;28;19910;-80
2022/03/20 01:43:08;;;;;;;;;;;;;;;0.59;100.00;96818.72;1033271;28;19913;-78
2022/03/20 01:43:40;;;;;;;;;;;;;;;0.55;100.00;96825.22;1032455;28;19952;-78
2022/03/20 01:44:10;;;;;;;;;;;;;;;0.55;100.00;96822.66;1029781;28;19927;-77
2022/03/20 01:44:41;;;;;;;;;;;;;;;0.55;100.00;96827.81;1033357;28;20292;-78
2022/03/20 01:45:18;;;;;;;;;;;;;;;0.52;100.00;96823.00;1041215;28;19917;-78
2022/03/20 01:45:48;;;;;;;;;;;;;;;0.53;100.00;96829.75;1036672;28;19928;-78
2022/03/20 01:46:18;;;;;;;;;;;;;;;0.51;100.00;96826.56;1037526;28;19910;-78
2022/03/20 01:46:51;;;;;;;;;;;;;;;0.52;100.00;96821.19;1029525;28;20393;-77
2022/03/20 01:47:21;;;;;;;;;;;;;;;0.52;100.00;96828.16;1028659;28;20462;-78
2022/03/20 01:47:52;;;;;;;;;;;;;;;0.49;100.00;96831.88;1028932;28;19910;-77
2022/03/20 01:48:22;;;;;;;;;;;;;;;0.46;100.00;96835.59;1036802;28;19920;-77
2022/03/20 01:48:53;;;;;;;;;;;;;;;0.48;100.00;96830.28;1042346;28;20206;-79
2022/03/20 01:49:23;;;;;;;;;;;;;;;0.49;100.00;96831.06;1033649;28;20387;-79
2022/03/20 01:49:53;;;;;;;;;;;;;;;0.43;100.00;96829.97;1028654;28;19950;-75
2022/03/20 01:50:32;;;;;;;;;;;;;;;0.39;100.00;96828.72;1033077;28;19913;-77
2022/03/20 01:51:02;;;;;;;;;;;;;;;0.39;100.00;96831.28;1032832;28;19920;-76
2022/03/20 01:52:25;;;;;;;;;;;;;;;0.31;100.00;96836.53;1025350;28;19910;-76
2022/03/20 01:52:57;;;;;;;;;;;;;;;0.30;100.00;96840.06;1028209;28;19910;-76
2022/03/20 01:53:28;;;;;;;;;;;;;;;0.29;100.00;96838.47;1029766;28;19933;-79
2022/03/20 01:53:58;;;;;;;;;;;;;;;0.27;100.00;96835.22;1028776;28;19934;-78
2022/03/20 01:54:30;;;;;;;;;;;;;;;0.25;100.00;96837.19;1024081;29;19927;-78
2022/03/20 02:58:31;;;;;;;;;;;;;;;-0.81;100.00;96846.91;1035821;28;19918;-78
2022/03/20 02:59:02;;;;;;;;;;;;;;;-0.78;100.00;96845.78;1039634;28;20213;-78
2022/03/20 02:59:32;;;;;;;;;;;;;;;-0.79;100.00;96847.56;1035742;28;19968;-77
2022/03/20 03:00:06;;;;;;;;;;;;;;;-0.82;100.00;96849.66;1035645;28;19925;-77
2022/03/20 03:00:37;;;;;;;;;;;;;;;-0.80;100.00;96847.72;1037705;28;19929;-77
2022/03/20 03:01:07;;;;;;;;;;;;;;;-0.81;100.00;96852.06;1032403;28;19948;-75
2022/03/20 03:01:40;;;;;;;;;;;;;;;-0.81;100.00;96853.84;1032962;28;19917;-77
2022/03/20 03:02:11;;;;;;;;;;;;;;;-0.81;100.00;96853.84;1031678;28;19997;-78
2022/03/20 03:02:45;;;;;;;;;;;;;;;-0.84;100.00;96849.00;1028428;28;19926;-81
2022/03/20 03:03:16;;;;;;;;;;;;;;;-0.82;100.00;96853.03;1031908;28;20363;-80
2022/03/20 03:03:47;;;;;;;;;;;;;;;-0.86;100.00;96850.97;1029149;28;19945;-78
2022/03/20 03:04:23;;;;;;;;;;;;;;;-0.88;100.00;96856.25;1023454;29;19981;-77
2022/03/20 03:04:53;;;;;;;;;;;;;;;-0.86;100.00;96849.19;1030320;28;20012;-78
2022/03/20 03:05:24;;;;;;;;;;;;;;;-0.85;100.00;96850.78;1032816;28;19921;-79
2022/03/20 03:05:58;;;;;;;;;;;;;;;-0.88;100.00;96858.03;1033321;28;21913;-78
2022/03/20 03:06:32;;;;;;;;;;;;;;;-0.87;100.00;96846.75;1035147;28;19937;-77
2022/03/20 03:07:03;;;;;;;;;;;;;;;-0.91;100.00;96854.00;1040265;28;19925;-77
2022/03/20 03:10:55;;;;;;;;;;;;;;;-0.84;100.00;96852.41;1038432;28;20201;-77
2022/03/20 03:11:26;;;;;;;;;;;;;;;-0.81;100.00;96854.63;1044791;28;19998;-78
2022/03/20 03:11:58;;;;;;;;;;;;;;;-0.81;100.00;96851.25;1042230;28;20662;-78
2022/03/20 03:12:28;;;;;;;;;;;;;;;-0.84;100.00;96849.84;1039290;28;19965;-77
2022/03/20 03:12:58;;;;;;;;;;;;;;;-0.83;100.00;96853.22;1033282;28;20327;-77
2022/03/20 03:13:29;;;;;;;;;;;;;;;-0.85;100.00;96843.06;1030600;28;19950;-78
2022/03/20 03:15:18;;;;;;;;;;;;;;;-0.88;100.00;96850.31;1029297;28;19961;-76
2022/03/20 03:15:39;;;;;;;;;;;;;;;-0.81;100.00;96851.25;1041149;28;20395;-80
2022/03/20 03:16:10;;;;;;;;;;;;;;;-0.82;100.00;96850.47;1038357;28;19925;-80
2022/03/20 03:16:40;;;;;;;;;;;;;;;-0.83;100.00;96848.06;1032275;28;20409;-79
2022/03/20 03:17:10;;;;;;;;;;;;;;;-0.85;100.00;96844.81;1024831;28;19930;-79
2022/03/20 03:17:41;;;;;;;;;;;;;;;-0.85;100.00;96855.94;1027114;28;20400;-79
2022/03/20 03:18:11;;;;;;;;;;;;;;;-0.84;100.00;96852.41;1025522;28;20692;-83
2022/03/20 03:18:44;;;;;;;;;;;;;;;-0.85;100.00;96843.06;1029741;28;20012;-77
2022/03/20 03:19:15;;;;;;;;;;;;;;;-0.81;100.00;96844.31;1027428;28;20043;-81
2022/03/20 03:19:45;;;;;;;;;;;;;;;-0.84;100.00;96842.09;1024080;29;20404;-78
2022/03/20 03:20:19;;;;;;;;;;;;;;;-0.85;100.00;96839.69;1032354;28;20273;-80
2022/03/20 03:20:49;;;;;;;;;;;;;;;-0.77;100.00;96842.22;1036697;28;19973;-77
2022/03/20 03:21:20;;;;;;;;;;;;;;;-0.78;100.00;96838.84;1027776;28;19914;-80
2022/03/20 03:21:50;;;;;;;;;;;;;;;-0.79;100.00;96839.81;1031430;28;19922;-77
2022/03/20 03:22:21;;;;;;;;;;;;;;;-0.77;100.00;96842.22;1034546;28;20004;-78
2022/03/20 03:22:51;;;;;;;;;;;;;;;-0.74;100.00;96847.88;1038386;28;19928;-76
2022/03/20 03:23:24;;;;;;;;;;;;;;;-0.72;100.00;96842.56;1034766;28;19925;-80
2022/03/20 03:23:55;;;;;;;;;;;;;;;-0.68;100.00;96843.03;1023566;29;20042;-77
2022/03/20 03:24:26;;;;;;;;;;;;;;;-0.70;100.00;96843.22;1027618;28;19914;-80
2022/03/20 03:24:56;;;;;;;;;;;;;;;-0.67;100.00;96847.19;1030010;28;19949;-78
2022/03/20 03:25:26;;;;;;;;;;;;;;;-0.66;100.00;96844.47;1021527;29;20051;-75
2022/03/20 03:25:57;;;;;;;;;;;;;;;-0.68;100.00;96845.59;1031178;28;19926;-76
2022/03/20 03:26:27;;;;;;;;;;;;;;;-0.61;100.00;96846.56;1033332;28;19957;-79
2022/03/20 03:26:57;;;;;;;;;;;;;;;-0.57;100.00;96847.81;1032814;28;20406;-76
2022/03/20 03:27:28;;;;;;;;;;;;;;;-0.57;100.00;96847.81;1036501;28;19957;-78
2022/03/20 03:27:58;;;;;;;;;;;;;;;-0.51;100.00;96844.59;1032853;28;20100;-78
2022/03/20 03:28:34;;;;;;;;;;;;;;;-0.54;100.00;96847.50;1029400;28;19917;-78
2022/03/20 03:29:07;;;;;;;;;;;;;;;-0.57;100.00;96843.50;1033050;28;19917;-75
2022/03/20 03:29:40;;;;;;;;;;;;;;;-0.57;100.00;96842.66;1032080;28;19929;-79
2022/03/20 03:30:15;;;;;;;;;;;;;;;-0.57;100.00;96845.25;1028696;28;19929;-81
2022/03/20 03:30:45;;;;;;;;;;;;;;;-0.53;100.00;96846.53;1025016;29;19919;-78
2022/03/20 03:31:16;;;;;;;;;;;;;;;-0.56;100.00;96849.44;1029962;28;20018;-76
2022/03/20 03:31:46;;;;;;;;;;;;;;;-0.57;100.00;96847.81;1029046;28;19948;-76
2022/03/20 03:32:16;;;;;;;;;;;;;;;-0.54;100.00;96850.91;1028819;28;19918;-76
2022/03/20 03:32:47;;;;;;;;;;;;;;;-0.55;100.00;96851.84;1026184;28;19918;-77
2022/03/20 03:33:17;;;;;;;;;;;;;;;-0.49;100.00;96850.41;1020798;29;19926;-79
2022/03/20 03:35:42;;;;;;;;;;;;;;;-0.59;100.00;96850.56;1029298;28;19921;-75
2022/03/20 03:36:13;;;;;;;;;;;;;;;-0.60;100.00;96854.13;1026814;28;19914;-77
2022/03/20 03:36:43;;;;;;;;;;;;;;;-0.57;100.00;96853.81;1036355;28;19917;-76
2022/03/20 03:37:18;;;;;;;;;;;;;;;-0.57;100.00;96851.22;1033107;28;20351;-80
2022/03/20 03:37:49;;;;;;;;;;;;;;;-0.57;100.00;96850.41;1031390;28;20433;-81
2022/03/20 03:38:20;;;;;;;;;;;;;;;-0.59;100.00;96850.56;1025355;28;20398;-79
2022/03/20 03:38:50;;;;;;;;;;;;;;;-0.57;100.00;96852.97;1028754;28;20295;-78
2022/03/20 03:39:22;;;;;;;;;;;;;;;-0.51;100.00;96847.97;1028989;28;19925;-78
2022/03/20 03:39:55;;;;;;;;;;;;;;;-0.55;100.00;96844.13;1034228;28;19922;-81
2022/03/20 03:40:26;;;;;;;;;;;;;;;-0.51;100.00;96844.59;1030328;28;19992;-80
2022/03/20 03:40:59;;;;;;;;;;;;;;;-0.53;100.00;96849.94;1029546;28;19945;-80
2022/03/20 03:41:29;;;;;;;;;;;;;;;-0.50;100.00;96851.38;1037056;28;19917;-81
2022/03/20 03:42:03;;;;;;;;;;;;;;;-0.50;100.00;96848.81;1033225;28;19918;-77
2022/03/20 03:42:34;;;;;;;;;;;;;;;-0.50;100.00;96846.22;1033479;28;20406;-78
2022/03/20 03:43:04;;;;;;;;;;;;;;;-0.51;100.00;96847.16;1032514;28;19981;-77
2022/03/20 03:43:36;;;;;;;;;;;;;;;-0.50;100.00;96848.81;1025714;28;19918;-80
2022/03/20 03:44:07;;;;;;;;;;;;;;;-0.49;100.00;96850.41;1029595;28;20274;-76
2022/03/20 03:44:37;;;;;;;;;;;;;;;-0.50;100.00;96846.22;1033334;28;19922;-76
2022/03/20 03:45:08;;;;;;;;;;;;;;;-0.51;100.00;96845.38;1037688;28;19924;-78
2022/03/20 03:45:41;;;;;;;;;;;;;;;-0.52;100.00;96855.88;1033520;28;20311;-77
2022/03/20 03:46:12;;;;;;;;;;;;;;;-0.47;100.00;96856.19;1029026;28;19961;-78
2022/03/20 03:46:42;;;;;;;;;;;;;;;-0.45;100.00;96850.88;1025195;29;19953;-77
2022/03/20 03:47:13;;;;;;;;;;;;;;;-0.44;100.00;96853.28;1025115;29;19978;-77
2022/03/20 03:47:43;;;;;;;;;;;;;;;-0.44;100.00;96853.28;1037793;28;19917;-77
2022/03/20 03:48:13;;;;;;;;;;;;;;;-0.42;100.00;96851.34;1029245;28;19925;-78
2022/03/20 03:48:44;;;;;;;;;;;;;;;-0.42;100.00;96856.50;1029390;28;19918;-79
2022/03/20 03:49:14;;;;;;;;;;;;;;;-0.47;100.00;96853.59;1029468;28;19941;-79
2022/03/20 03:49:44;;;;;;;;;;;;;;;-0.50;100.00;96857.34;1028853;28;19926;-77
2022/03/20 03:50:15;;;;;;;;;;;;;;;-0.48;100.00;96857.16;1033335;28;19949;-77
2022/03/20 03:50:46;;;;;;;;;;;;;;;-0.49;100.00;96860.72;1037478;28;19953;-78
2022/03/20 03:51:16;;;;;;;;;;;;;;;-0.50;100.00;96859.09;1033162;28;19918;-80